Relevés horaires Chievres (Belgique)


Relevés horaires à Chievres - Jeudi 30 Avr. 2026
Heure UTC1 Température [°C] Vent [km/h] Hum. [%] Pres.4 [hPa] Visi. [Km] Nébu. [octa] Préc.5 [mm] Cond.
2m. Res. Ros. Dir.2 Vit. Moy. Raf.3
23:00 8.9 8.9 -1.9 ENE 3.7 -- 5.6 47 1023.7(0.8/3h) >70 -- -- --
22:00 8.8 8.2 -1.2 E 5.6 -- 5.6 49 1023.8(1.5/3h) >70 -- -- --
21:00 12.8 12.8 -3.7 NNO 1.9 -- 16.7 31 1023.6(1.9/3h) >70 -- -- --
20:00 13.8 13.8 -4.1 ESE 5.6 -- 13.0 29 1022.8(1.2/3h) >70 -- -- --
19:00 16.6 16.6 -5.5 E 7.4 -- 16.7 21 1022.1(0.4/3h) >70 -- -- --
18:00 18.7 18.7 -4.1 E 9.3 -- 20.4 21 1021.5(-0.1/3h) >70 -- -- --
17:00 20.2 20.2 -2.1 E 11.1 -- 16.7 22 1021.3(-0.6/3h) >70 -- -- --
16:00 20.8 20.8 -1.9 E 11.1 -- 18.5 22 1021.6(-1.0/3h) >70 -- -- --
15:00 20.8 20.8 -- E 11.1 -- 20.4 -- 1021.6(-1.5/3h) >70 -- -- --
14:00 20.5 20.5 -0.3 E 11.1 -- 20.4 25 1022.1(-1.5/3h) >70 -- -- --
13:00 19.9 19.9 0.8 E 13.0 -- 20.4 28 1022.5(-1.5/3h) >70 -- -- --
12:00 18.6 18.6 0.1 E 13.0 -- 20.4 29 1023.2(-1.1/3h) >70 -- -- --
11:00 17.7 17.7 0.3 E 11.1 -- 18.5 31 1023.7(-1.0/3h) >70 -- -- --
10:00 15.9 15.6 0.1 E 11.1 -- 18.5 34 1024.2(-0.7/3h) >70 -- -- --
09:00 13.8 13 -0.4 E 11.1 -- 18.5 38 1024.5(-0.2/3h) >70 -- -- --
08:00 12.2 11.1 -0.5 E 11.1 -- 16.7 41 1024.9(0.6/3h) >70 -- -- --
07:00 10.5 9.3 -0.7 E 9.3 -- 14.8 46 1025(1.0/3h) >70 -- -- --
06:00 8.7 7.6 -0.5 E 7.4 -- 18.5 52 1025(0.8/3h) >70 -- -- --
05:00 7.3 6 -1.2 E 7.4 -- 13.0 55 1024.4(0.3/3h) >70 -- -- --
04:00 7.5 6.2 -1.3 E 7.4 -- 16.7 54 1024.2(0.0/3h) >70 -- -- --
03:00 8.4 6.5 -1.1 ENE 11.1 -- 18.5 51 1024(0.0/3h) >70 -- -- --
02:00 9.4 7.7 -1.0 ENE 11.1 -- 14.8 48 1024(0.1/3h) >70 -- -- --
01:00 10.3 9.1 -0.7 E 9.3 -- 14.8 46 1024(0.5/3h) >70 -- -- --
00:00 11.2 10.2 -- E 9.3 -- 20.4 -- 1024(0.9/3h) >70 -- -- --

1 Coordinated Universal Time. Actuellement il est 05:00 locale et 03:00 UTC.

2 Le vent souffle depuis la direction indiquée vers la direction oposée.

3 Les rafales max. sont disponible 40 min après l'heure du relevé.

4 Pour les stations d'altitude (plus de 600m) le géopotentiel du niveau le plus proche de la pression obligatoire est indiqué.

5 Les stations disposant d'un diffuseur peuvent indiquer "trace". Cela signifie que des précipitations ont touchés le sol mais que la quantité est inférieure à 0.1 mm.

Récapitulatif de la journée
Température [°C] Vent [km/h] Ensoleillement4 [h] Precipitations totale5 [mm] Pression [Hpa]
Min1 Max.2 Moy.3 Max. Min Max.
7.1 21.2 0 20.4 0 h 0 min 0 1021.3 1025.0

1 Température minimale relevée entre 18:00 UTC la veille et 18:00 UTC le jour donné.

2 Température maximale relevée entre 06:00 UTC le jour donné et 06:00 UTC le lendemain.

3 Vent moyen de la journée basé sur les relevés horaires.

4 Ensoleillement en heures relevé entre 06:00 UTC la veille et 06:00 UTC le jour donné.

5 Précipitations totales tombées entre 06:00 UTC la jour donné et 06:00 UTC le lendemain.

Graphiques horaires